Detall de PIREP

Printer-friendly versionPDF version

[2010/02/07 20:15:00]
Flight IATA:CT0001
Pilot Number:041
Company ICAO:CAT
Aircraft Type:BE58/A
PAX:3
Departing Airport: LEVC
Destination Airport: LEIB
Alternate Airport:LEPA
Online: VATSIM
Route:NINOT1B NINOT1N
Flight Level:FL80
No Slew and time accel
No pause
Crash detect
Detect pilot in Cockpit between each 30 and 45 minutes
20:15 Zero fuel Weight: 4671 Lbs, Fuel Weight: 850 Lbs
20:15 VATSIM:LEVC 072000Z VRB02KT CAVOK 12/08 Q1011 NOSIG
20:15 VATSIM:LEIB 071930Z 00000KT CAVOK 10/08 Q1012 NOSIG
20:15 VOICE CATALONIAN
20:16 Parking Brakes off
20:33 Take-off
20:33 Take off Weight: 5516 Lbs
20:33 Wind: 133º @ 008 Knots Heading: 116º
20:33 POS N39º 29´ 25´´ W000º 29´ 03´´
20:33 Flaps:1 at 109 Knots
20:33 Gear Up: 109 Knots
20:34 Flaps:0 at 119 Knots
20:42 TOC
20:42 Fuel Weight: 810 Lb
20:48 Wind:308º@013 Knots Heading: 109º Ground Speed: 207 Knots Altitude 7988 f
t
20:54 TOD
20:54 Fuel Weight: 768 Lb
21:03 Wind:023º@004 Knots Heading: 105º Ground Speed: 147 Knots Altitude 2998 ft
21:06 Flaps:1 at 145 Knots
21:13 Gear Down: 126 Knots
21:13 Flaps:2 at 126 Knots
21:16 TouchDown:Rate -43 ft/min Speed: 94 Knots
21:17 Flaps:0 at 76 Knots
21:17 VATSIM:LEIB 072100Z VRB01KT CAVOK 10/08 Q1012 NOSIG
21:17 Land
21:17 Wind:132º@008 Knots
21:17 Heading: 252º
21:17 Flight Duration: 00:44
21:17 Landing Weight: 5393 Lbs
21:17 POS N38º 52´ 19´´ E001º 22´ 14´´
21:22 Parking brakes on
21:22 Block to Block Duration: 01:06
21:22 Final Fuel: 718 Lbls
21:22 Spent Fuel: 132 Lbls
21:22 Flight Length: 119 NM
21:22 TOD Land Length: 55 NM

Exportar CSV

Powered by Drupal - Modified by Danger4k